createdAt,value
2016-09-09T00:00:52.882Z,0
2016-09-09T00:01:53.182Z,0
2016-09-09T00:02:52.870Z,0
2016-09-09T00:03:52.869Z,0
2016-09-09T00:04:52.872Z,0
2016-09-09T00:05:52.875Z,0
2016-09-09T00:06:53.189Z,0
2016-09-09T00:07:52.881Z,0
2016-09-09T00:08:52.883Z,0
2016-09-09T00:09:52.898Z,0
2016-09-09T00:10:52.894Z,0
2016-09-09T00:11:52.884Z,0
2016-09-09T00:12:52.887Z,0
2016-09-09T00:13:52.884Z,0
2016-09-09T00:14:52.898Z,0
2016-09-09T00:15:52.899Z,0
2016-09-09T00:16:53.213Z,0
2016-09-09T00:17:52.904Z,0
2016-09-09T00:18:52.901Z,0
2016-09-09T00:19:52.907Z,0
2016-09-09T00:20:53.244Z,0
2016-09-09T00:21:52.900Z,0
2016-09-09T00:22:53.239Z,0
2016-09-09T00:23:52.923Z,0
2016-09-09T00:24:52.915Z,0
2016-09-09T00:25:52.922Z,0
2016-09-09T00:26:52.926Z,0
2016-09-09T00:27:52.912Z,0
2016-09-09T00:28:52.919Z,0
2016-09-09T00:29:52.916Z,0
2016-09-09T00:30:52.944Z,0
2016-09-09T00:31:52.937Z,0
2016-09-09T00:32:52.928Z,0
2016-09-09T00:33:53.244Z,0
2016-09-09T00:34:53.093Z,0
2016-09-09T00:35:52.945Z,0
2016-09-09T00:36:52.938Z,0
2016-09-09T00:37:52.934Z,0
2016-09-09T00:38:52.946Z,0
2016-09-09T00:39:52.948Z,0
2016-09-09T00:40:52.964Z,0
2016-09-09T00:41:53.190Z,0
2016-09-09T00:42:53.520Z,0
2016-09-09T00:43:52.952Z,0
2016-09-09T00:44:52.955Z,0
2016-09-09T00:45:52.952Z,0
2016-09-09T00:46:52.960Z,0
2016-09-09T00:47:52.962Z,0
2016-09-09T00:48:52.975Z,0
2016-09-09T00:49:53.317Z,0
2016-09-09T00:50:52.974Z,0
2016-09-09T00:51:52.963Z,0
2016-09-09T00:52:52.982Z,0
2016-09-09T00:53:52.968Z,0
2016-09-09T00:54:52.979Z,0
2016-09-09T00:55:52.991Z,0
2016-09-09T00:56:52.978Z,0
2016-09-09T00:57:52.981Z,0
2016-09-09T00:58:52.993Z,0
2016-09-09T00:59:52.980Z,0
2016-09-09T01:00:52.987Z,0
2016-09-09T01:01:52.985Z,0
2016-09-09T01:02:52.988Z,0
2016-09-09T01:03:52.990Z,0
2016-09-09T01:04:52.990Z,0
2016-09-09T01:05:53.082Z,0
2016-09-09T01:06:53.008Z,0
2016-09-09T01:07:53.011Z,0
2016-09-09T01:08:53.020Z,0
2016-09-09T01:09:53.020Z,0
2016-09-09T01:10:53.017Z,0
2016-09-09T01:11:53.010Z,0
2016-09-09T01:12:53.021Z,0
2016-09-09T01:13:53.013Z,0
2016-09-09T01:14:53.027Z,0
2016-09-09T01:15:53.030Z,0
2016-09-09T01:16:53.013Z,0
2016-09-09T01:17:53.024Z,0
2016-09-09T01:18:53.027Z,0
2016-09-09T01:19:53.026Z,0
2016-09-09T01:20:53.342Z,0
2016-09-09T01:21:53.042Z,0
2016-09-09T01:22:53.351Z,0
2016-09-09T01:23:53.030Z,0
2016-09-09T01:24:53.028Z,0
2016-09-09T01:25:53.055Z,0
2016-09-09T01:26:53.035Z,0
2016-09-09T01:27:53.382Z,0
2016-09-09T01:28:53.315Z,0
2016-09-09T01:29:53.036Z,0
2016-09-09T01:30:53.076Z,0
2016-09-09T01:31:53.038Z,0
2016-09-09T01:32:53.044Z,0
2016-09-09T01:33:53.061Z,0
2016-09-09T01:34:53.520Z,0
2016-09-09T01:35:53.067Z,0
2016-09-09T01:36:53.370Z,0
2016-09-09T01:37:53.400Z,0
2016-09-09T01:38:53.065Z,0
2016-09-09T01:39:53.589Z,0
2016-09-09T01:40:53.071Z,0
2016-09-09T01:41:53.065Z,0
2016-09-09T01:42:53.070Z,0
2016-09-09T01:43:53.067Z,0
2016-09-09T01:44:53.066Z,0
2016-09-09T01:45:53.080Z,0
2016-09-09T01:46:53.092Z,0
2016-09-09T01:47:53.077Z,0
2016-09-09T01:48:53.069Z,0
2016-09-09T01:49:53.074Z,0
2016-09-09T01:50:53.076Z,0
2016-09-09T01:51:53.075Z,0
2016-09-09T01:52:53.093Z,0
2016-09-09T01:53:53.413Z,0
2016-09-09T01:54:53.095Z,0
2016-09-09T01:55:53.106Z,0
2016-09-09T01:56:53.098Z,0
2016-09-09T01:57:53.099Z,0
2016-09-09T01:58:53.089Z,0
2016-09-09T01:59:53.415Z,0
2016-09-09T02:00:53.116Z,0
2016-09-09T02:01:53.101Z,0
2016-09-09T02:02:53.421Z,0
2016-09-09T02:03:53.104Z,0
2016-09-09T02:04:53.102Z,0
2016-09-09T02:05:53.117Z,0
2016-09-09T02:06:53.102Z,0
2016-09-09T02:07:53.105Z,0
2016-09-09T02:08:53.105Z,0
2016-09-09T02:09:53.104Z,0
2016-09-09T02:10:53.114Z,0
2016-09-09T02:11:53.106Z,0
2016-09-09T02:12:53.110Z,0
2016-09-09T02:13:53.434Z,0
2016-09-09T02:14:53.107Z,0
2016-09-09T02:15:53.398Z,0
2016-09-09T02:16:53.108Z,0
2016-09-09T02:17:53.429Z,0
2016-09-09T02:18:53.110Z,0
2016-09-09T02:19:53.123Z,0
2016-09-09T02:20:53.121Z,0
2016-09-09T02:21:53.118Z,0
2016-09-09T02:22:53.121Z,0
2016-09-09T02:23:53.127Z,0
2016-09-09T02:24:53.438Z,0
2016-09-09T02:25:53.141Z,0
2016-09-09T02:26:53.122Z,0
2016-09-09T02:27:53.152Z,0
2016-09-09T02:28:53.133Z,0
2016-09-09T02:29:53.147Z,0
2016-09-09T02:30:53.133Z,0
2016-09-09T02:31:53.138Z,0
2016-09-09T02:32:53.376Z,0
2016-09-09T02:33:53.457Z,0
2016-09-09T02:34:53.202Z,0
2016-09-09T02:35:53.161Z,0
2016-09-09T02:36:53.468Z,0
2016-09-09T02:37:53.156Z,0
2016-09-09T02:38:53.157Z,0
2016-09-09T02:39:53.159Z,0
2016-09-09T02:40:53.156Z,0
2016-09-09T02:41:53.489Z,0
2016-09-09T02:42:53.153Z,0
2016-09-09T02:43:53.472Z,0
2016-09-09T02:44:53.175Z,0
2016-09-09T02:45:53.179Z,0
2016-09-09T02:46:53.166Z,0
2016-09-09T02:47:53.170Z,0
2016-09-09T02:48:53.174Z,0
2016-09-09T02:49:53.180Z,0
2016-09-09T02:50:53.178Z,0
2016-09-09T02:51:53.178Z,0
2016-09-09T02:52:53.483Z,0
2016-09-09T02:53:53.180Z,0
2016-09-09T02:54:53.175Z,0
2016-09-09T02:55:53.190Z,0
2016-09-09T02:56:53.173Z,0
2016-09-09T02:57:53.185Z,0
2016-09-09T02:58:53.175Z,0
2016-09-09T02:59:53.199Z,0
2016-09-09T03:00:53.182Z,0
2016-09-09T03:01:53.187Z,0
2016-09-09T03:02:53.185Z,0
2016-09-09T03:03:53.190Z,0
2016-09-09T03:04:53.187Z,0
2016-09-09T03:05:53.456Z,0
2016-09-09T03:06:53.511Z,0
2016-09-09T03:07:53.520Z,0
2016-09-09T03:08:53.202Z,0
2016-09-09T03:09:53.201Z,0
2016-09-09T03:10:53.210Z,0
2016-09-09T03:11:53.197Z,0
2016-09-09T03:12:53.192Z,0
2016-09-09T03:13:53.222Z,0
2016-09-09T03:14:53.199Z,0
2016-09-09T03:15:53.203Z,0
2016-09-09T03:16:53.203Z,0
2016-09-09T03:17:53.211Z,0
2016-09-09T03:18:53.215Z,0
2016-09-09T03:19:53.225Z,0
2016-09-09T03:20:53.214Z,0
2016-09-09T03:21:53.226Z,0
2016-09-09T03:22:53.216Z,0
2016-09-09T03:23:53.223Z,0
2016-09-09T03:24:53.228Z,0
2016-09-09T03:25:53.235Z,0
2016-09-09T03:26:53.223Z,0
2016-09-09T03:27:53.226Z,0
2016-09-09T03:28:53.245Z,0
2016-09-09T03:29:53.236Z,0
2016-09-09T03:30:53.238Z,0
2016-09-09T03:31:53.232Z,0
2016-09-09T03:32:53.228Z,0
2016-09-09T03:33:53.230Z,0
2016-09-09T03:34:53.277Z,0
2016-09-09T03:35:53.265Z,0
2016-09-09T03:36:53.553Z,0
2016-09-09T03:37:53.240Z,0
2016-09-09T03:38:53.241Z,0
2016-09-09T03:39:53.478Z,0
2016-09-09T03:40:53.262Z,0
2016-09-09T03:41:53.565Z,0
2016-09-09T03:42:53.256Z,0
2016-09-09T03:43:53.269Z,0
2016-09-09T03:44:53.252Z,0
2016-09-09T03:45:53.264Z,0
2016-09-09T03:46:53.257Z,0
2016-09-09T03:47:53.262Z,0
2016-09-09T03:48:53.264Z,0
2016-09-09T03:49:53.255Z,0
2016-09-09T03:50:53.290Z,0
2016-09-09T03:51:53.257Z,0
2016-09-09T03:52:53.260Z,0
2016-09-09T03:53:53.265Z,0
2016-09-09T03:54:53.270Z,0
2016-09-09T03:55:53.271Z,0
2016-09-09T03:56:53.260Z,0
2016-09-09T03:57:53.263Z,0
2016-09-09T03:58:53.570Z,0
2016-09-09T03:59:53.278Z,0
2016-09-09T04:00:53.587Z,0
2016-09-09T04:01:53.267Z,0
2016-09-09T04:02:53.278Z,0
2016-09-09T04:03:53.595Z,0
2016-09-09T04:04:53.536Z,0
2016-09-09T04:05:53.524Z,0
2016-09-09T04:06:53.595Z,0
2016-09-09T04:07:53.612Z,0
2016-09-09T04:08:53.530Z,0
2016-09-09T04:09:53.296Z,0
2016-09-09T04:10:53.542Z,0
2016-09-09T04:11:53.288Z,0
2016-09-09T04:12:53.857Z,0
2016-09-09T04:13:53.282Z,0
2016-09-09T04:14:53.301Z,0
2016-09-09T04:15:53.302Z,0
2016-09-09T04:16:53.297Z,0
2016-09-09T04:17:53.289Z,0
2016-09-09T04:18:53.300Z,0
2016-09-09T04:19:53.296Z,0
2016-09-09T04:20:53.302Z,0
2016-09-09T04:21:53.299Z,0
2016-09-09T04:22:53.312Z,0
2016-09-09T04:23:53.305Z,0
2016-09-09T04:24:53.300Z,0
2016-09-09T04:25:53.638Z,0
2016-09-09T04:26:53.302Z,0
2016-09-09T04:27:53.308Z,0
2016-09-09T04:28:53.300Z,0
2016-09-09T04:29:53.316Z,0
2016-09-09T04:30:53.626Z,0
2016-09-09T04:31:53.309Z,0
2016-09-09T04:32:53.306Z,0
2016-09-09T04:33:53.316Z,0
2016-09-09T04:34:53.360Z,0
2016-09-09T04:35:53.340Z,0
2016-09-09T04:36:53.322Z,0
2016-09-09T04:37:53.327Z,0
2016-09-09T04:38:53.321Z,0
2016-09-09T04:39:53.322Z,0
2016-09-09T04:40:53.360Z,0
2016-09-09T04:41:53.343Z,0
2016-09-09T04:42:53.349Z,0
2016-09-09T04:43:53.345Z,0
2016-09-09T04:44:53.349Z,0
2016-09-09T04:45:53.349Z,0
2016-09-09T04:46:53.659Z,5
2016-09-09T04:47:53.345Z,5
2016-09-09T04:48:53.344Z,5
2016-09-09T04:49:53.349Z,5
2016-09-09T04:50:53.352Z,5
2016-09-09T04:51:53.367Z,5
2016-09-09T04:52:53.381Z,5
2016-09-09T04:53:53.354Z,10
2016-09-09T04:54:53.351Z,10
2016-09-09T04:55:53.370Z,10
2016-09-09T04:56:53.358Z,10
2016-09-09T04:57:53.350Z,10
2016-09-09T04:58:53.351Z,15
2016-09-09T04:59:53.354Z,15
2016-09-09T05:00:53.356Z,15
2016-09-09T05:01:53.356Z,15
2016-09-09T05:02:53.357Z,20
2016-09-09T05:03:53.381Z,20
2016-09-09T05:04:53.352Z,20
2016-09-09T05:05:53.374Z,20
2016-09-09T05:06:53.356Z,25
2016-09-09T05:07:53.365Z,25
2016-09-09T05:08:53.374Z,25
2016-09-09T05:09:53.357Z,30
2016-09-09T05:10:53.380Z,30
2016-09-09T05:11:53.359Z,30
2016-09-09T05:12:53.358Z,30
2016-09-09T05:13:53.994Z,35
2016-09-09T05:14:53.360Z,35
2016-09-09T05:15:53.400Z,35
2016-09-09T05:16:53.361Z,40
2016-09-09T05:17:53.365Z,40
2016-09-09T05:18:53.381Z,40
2016-09-09T05:19:53.380Z,50
2016-09-09T05:20:53.406Z,55
2016-09-09T05:21:53.610Z,65
2016-09-09T05:22:53.390Z,70
2016-09-09T05:23:53.391Z,75
2016-09-09T05:24:53.386Z,75
2016-09-09T05:25:53.388Z,80
2016-09-09T05:26:53.386Z,65
2016-09-09T05:27:53.392Z,85
2016-09-09T05:28:53.689Z,85
2016-09-09T05:29:53.391Z,85
2016-09-09T05:30:53.385Z,90
2016-09-09T05:31:53.398Z,90
2016-09-09T05:32:53.396Z,90
2016-09-09T05:33:53.402Z,95
2016-09-09T05:34:53.463Z,90
2016-09-09T05:35:53.407Z,90
2016-09-09T05:36:53.408Z,90
2016-09-09T05:37:53.413Z,85
2016-09-09T05:38:53.721Z,85
2016-09-09T05:39:53.402Z,90
2016-09-09T05:40:53.410Z,85
2016-09-09T05:41:53.413Z,85
2016-09-09T05:42:53.436Z,85
2016-09-09T05:43:53.460Z,85
2016-09-09T05:44:53.461Z,90
2016-09-09T05:45:53.466Z,90
2016-09-09T05:46:53.742Z,90
2016-09-09T05:47:53.443Z,90
2016-09-09T05:48:53.753Z,90
2016-09-09T05:49:53.464Z,95
2016-09-09T05:50:53.472Z,95
2016-09-09T05:51:53.710Z,95
2016-09-09T05:52:53.466Z,95
2016-09-09T05:53:53.435Z,95
2016-09-09T05:54:53.468Z,100
2016-09-09T05:55:53.442Z,100
2016-09-09T05:56:53.469Z,100
2016-09-09T05:57:53.468Z,100
2016-09-09T05:58:53.471Z,100
2016-09-09T05:59:53.784Z,100
2016-09-09T06:00:53.484Z,100
2016-09-09T06:01:53.472Z,105
2016-09-09T06:02:53.779Z,105
2016-09-09T06:03:53.474Z,105
2016-09-09T06:04:53.473Z,105
2016-09-09T06:05:53.487Z,105
2016-09-09T06:06:53.484Z,110
2016-09-09T06:07:53.476Z,110
2016-09-09T06:08:53.479Z,110
2016-09-09T06:09:53.780Z,110
2016-09-09T06:10:53.500Z,110
2016-09-09T06:11:53.483Z,115
2016-09-09T06:12:53.495Z,115
2016-09-09T06:13:53.480Z,115
2016-09-09T06:14:53.496Z,115
2016-09-09T06:15:53.497Z,120
2016-09-09T06:16:53.494Z,120
2016-09-09T06:17:53.487Z,125
2016-09-09T06:18:53.502Z,125
2016-09-09T06:19:53.497Z,130
2016-09-09T06:20:53.512Z,125
2016-09-09T06:21:53.497Z,135
2016-09-09T06:22:53.500Z,135
2016-09-09T06:23:53.543Z,135
2016-09-09T06:24:53.518Z,135
2016-09-09T06:25:53.832Z,140
2016-09-09T06:26:53.507Z,145
2016-09-09T06:27:53.824Z,150
2016-09-09T06:28:53.543Z,160
2016-09-09T06:29:53.508Z,165
2016-09-09T06:30:53.560Z,170
2016-09-09T06:31:53.524Z,175
2016-09-09T06:32:53.545Z,175
2016-09-09T06:33:53.547Z,175
2016-09-09T06:34:53.681Z,170
2016-09-09T06:35:53.558Z,165
2016-09-09T06:36:53.535Z,165
2016-09-09T06:37:53.549Z,170
2016-09-09T06:38:53.782Z,175
2016-09-09T06:39:53.548Z,175
2016-09-09T06:40:53.555Z,185
2016-09-09T06:41:53.551Z,200
2016-09-09T06:42:53.550Z,200
2016-09-09T06:43:53.557Z,205
2016-09-09T06:44:53.552Z,215
2016-09-09T06:45:53.570Z,220
2016-09-09T06:46:53.559Z,220
2016-09-09T06:47:53.563Z,225
2016-09-09T06:48:53.568Z,225
2016-09-09T06:49:53.591Z,225
2016-09-09T06:50:53.836Z,230
2016-09-09T06:51:53.593Z,235
2016-09-09T06:52:53.586Z,230
2016-09-09T06:53:53.603Z,230
2016-09-09T06:54:53.590Z,230
2016-09-09T06:55:53.626Z,235
2016-09-09T06:56:53.590Z,235
2016-09-09T06:57:53.615Z,240
2016-09-09T06:58:53.914Z,230
2016-09-09T06:59:53.616Z,225
2016-09-09T07:00:53.640Z,215
2016-09-09T07:01:53.625Z,205
2016-09-09T07:02:53.943Z,205
2016-09-09T07:03:53.631Z,200
2016-09-09T07:04:53.649Z,200
2016-09-09T07:05:53.663Z,200
2016-09-09T07:06:53.652Z,205
2016-09-09T07:07:53.655Z,205
2016-09-09T07:08:53.665Z,195
2016-09-09T07:09:53.976Z,195
2016-09-09T07:10:53.687Z,190
2016-09-09T07:11:53.698Z,195
2016-09-09T07:12:53.692Z,200
2016-09-09T07:13:53.700Z,200
2016-09-09T07:14:53.706Z,200
2016-09-09T07:15:53.706Z,220
2016-09-09T07:16:53.713Z,230
2016-09-09T07:17:53.785Z,235
2016-09-09T07:18:53.788Z,245
2016-09-09T07:19:53.726Z,245
2016-09-09T07:20:53.750Z,240
2016-09-09T07:21:53.731Z,245
2016-09-09T07:22:54.044Z,245
2016-09-09T07:23:53.983Z,245
2016-09-09T07:24:53.756Z,245
2016-09-09T07:25:53.760Z,245
2016-09-09T07:26:54.155Z,245
2016-09-09T07:27:53.773Z,245
2016-09-09T07:28:53.772Z,245
2016-09-09T07:29:53.773Z,245
2016-09-09T07:30:53.789Z,245
2016-09-09T07:31:53.802Z,245
2016-09-09T07:32:53.793Z,245
2016-09-09T07:33:53.801Z,245
2016-09-09T07:34:53.954Z,245
2016-09-09T07:35:53.833Z,245
2016-09-09T07:36:53.832Z,245
2016-09-09T07:37:53.847Z,245
2016-09-09T07:38:53.844Z,245
2016-09-09T07:39:54.091Z,245
2016-09-09T07:40:53.848Z,240
2016-09-09T07:41:53.857Z,235
2016-09-09T07:42:53.859Z,235
2016-09-09T07:43:54.189Z,235
2016-09-09T07:44:53.877Z,235
2016-09-09T07:45:53.912Z,230
2016-09-09T07:46:53.897Z,220
2016-09-09T07:47:53.905Z,215
2016-09-09T07:48:53.920Z,210
2016-09-09T07:49:53.917Z,210
2016-09-09T07:50:53.928Z,220
2016-09-09T07:51:54.182Z,225
2016-09-09T07:52:54.256Z,225
2016-09-09T07:53:53.953Z,210
2016-09-09T07:54:53.982Z,205
2016-09-09T07:55:54.039Z,200
2016-09-09T07:56:54.052Z,195
2016-09-09T07:57:53.983Z,195
2016-09-09T07:58:53.981Z,200
2016-09-09T07:59:53.996Z,200
2016-09-09T08:00:53.984Z,200
2016-09-09T08:01:53.998Z,205
2016-09-09T08:02:53.996Z,210
2016-09-09T08:03:54.261Z,225
2016-09-09T08:04:54.008Z,230
2016-09-09T08:05:54.023Z,230
2016-09-09T08:06:54.027Z,235
2016-09-09T08:07:54.037Z,230
2016-09-09T08:08:54.047Z,230
2016-09-09T08:09:54.048Z,230
2016-09-09T08:10:54.065Z,230
2016-09-09T08:11:54.049Z,230
2016-09-09T08:12:54.067Z,230
2016-09-09T08:13:54.137Z,240
2016-09-09T08:14:54.071Z,230
2016-09-09T08:15:54.097Z,230
2016-09-09T08:16:54.082Z,230
2016-09-09T08:17:54.086Z,230
2016-09-09T08:18:54.405Z,230
2016-09-09T08:19:54.105Z,225
2016-09-09T08:20:54.113Z,225
2016-09-09T08:21:54.128Z,230
2016-09-09T08:22:54.131Z,225
2016-09-09T08:23:54.133Z,225
2016-09-09T08:24:54.135Z,225
2016-09-09T08:25:54.142Z,225
2016-09-09T08:26:54.149Z,230
2016-09-09T08:27:54.155Z,225
2016-09-09T08:28:54.157Z,225
2016-09-09T08:29:54.182Z,220
2016-09-09T08:30:54.184Z,220
2016-09-09T08:31:54.193Z,215
2016-09-09T08:32:54.202Z,215
2016-09-09T08:33:54.271Z,215
2016-09-09T08:34:54.328Z,215
2016-09-09T08:35:54.790Z,215
2016-09-09T08:36:54.211Z,210
2016-09-09T08:37:54.219Z,210
2016-09-09T08:38:54.227Z,215
2016-09-09T08:39:54.224Z,215
2016-09-09T08:40:54.247Z,215
2016-09-09T08:41:54.247Z,215
2016-09-09T08:42:54.257Z,215
2016-09-09T08:43:54.247Z,215
2016-09-09T08:44:54.260Z,215
2016-09-09T08:45:54.273Z,215
2016-09-09T08:46:54.282Z,215
2016-09-09T08:47:54.587Z,215
2016-09-09T08:48:54.289Z,215
2016-09-09T08:49:54.313Z,215
2016-09-09T08:50:54.290Z,215
2016-09-09T08:51:54.298Z,215
2016-09-09T08:52:54.537Z,210
2016-09-09T08:53:54.632Z,210
2016-09-09T08:54:54.304Z,210
2016-09-09T08:55:54.309Z,210
2016-09-09T08:56:54.315Z,210
2016-09-09T08:57:54.323Z,210
2016-09-09T08:58:54.322Z,210
2016-09-09T08:59:54.328Z,210
2016-09-09T09:00:54.342Z,210
2016-09-09T09:01:54.343Z,210
2016-09-09T09:02:54.659Z,210
2016-09-09T09:03:54.359Z,205
2016-09-09T09:04:54.357Z,205
2016-09-09T09:05:54.367Z,205
2016-09-09T09:06:54.357Z,205
2016-09-09T09:07:54.363Z,205
2016-09-09T09:08:54.692Z,205
2016-09-09T09:09:54.439Z,205
2016-09-09T09:10:54.453Z,205
2016-09-09T09:11:54.380Z,205
2016-09-09T09:12:54.383Z,205
2016-09-09T09:13:54.391Z,205
2016-09-09T09:14:54.394Z,205
2016-09-09T09:15:54.395Z,205
2016-09-09T09:16:54.402Z,205
2016-09-09T09:17:54.404Z,205
2016-09-09T09:18:54.409Z,205
2016-09-09T09:19:54.426Z,205
2016-09-09T09:20:54.426Z,205
2016-09-09T09:21:54.428Z,205
2016-09-09T09:22:54.433Z,205
2016-09-09T09:23:54.441Z,205
2016-09-09T09:24:54.451Z,205
2016-09-09T09:25:54.441Z,200
2016-09-09T09:26:54.444Z,200
2016-09-09T09:27:54.460Z,200
2016-09-09T09:28:54.467Z,205
2016-09-09T09:29:54.458Z,200
2016-09-09T09:30:54.465Z,205
2016-09-09T09:31:54.464Z,205
2016-09-09T09:32:54.472Z,200
2016-09-09T09:33:54.491Z,200
2016-09-09T09:34:54.649Z,200
2016-09-09T09:35:54.493Z,200
2016-09-09T09:36:54.497Z,200
2016-09-09T09:37:54.530Z,200
2016-09-09T09:38:54.519Z,200
2016-09-09T09:39:54.536Z,200
2016-09-09T09:40:54.530Z,200
2016-09-09T09:41:54.517Z,200
2016-09-09T09:42:54.527Z,200
2016-09-09T09:43:54.530Z,200
2016-09-09T09:44:54.578Z,200
2016-09-09T09:45:54.581Z,200
2016-09-09T09:46:54.540Z,200
2016-09-09T09:47:54.546Z,200
2016-09-09T09:48:54.894Z,200
2016-09-09T09:49:54.546Z,200
2016-09-09T09:50:54.917Z,200
2016-09-09T09:51:54.559Z,200
2016-09-09T09:52:54.564Z,205
2016-09-09T09:53:54.574Z,200
2016-09-09T09:54:54.568Z,200
2016-09-09T09:55:54.570Z,200
2016-09-09T09:56:54.576Z,200
2016-09-09T09:57:54.580Z,200
2016-09-09T09:58:54.585Z,200
2016-09-09T09:59:54.604Z,200
2016-09-09T10:00:54.598Z,200
2016-09-09T10:01:54.601Z,200
2016-09-09T10:02:54.606Z,200
2016-09-09T10:03:54.860Z,200
2016-09-09T10:04:54.614Z,200
2016-09-09T10:05:54.644Z,200
2016-09-09T10:06:54.638Z,200
2016-09-09T10:07:54.636Z,200
2016-09-09T10:08:54.640Z,200
2016-09-09T10:09:54.638Z,200
2016-09-09T10:10:54.890Z,200
2016-09-09T10:11:54.646Z,200
2016-09-09T10:12:54.651Z,200
2016-09-09T10:13:54.654Z,200
2016-09-09T10:14:54.654Z,200
2016-09-09T10:15:54.666Z,200
2016-09-09T10:16:54.668Z,200
2016-09-09T10:17:54.679Z,200
2016-09-09T10:18:54.677Z,200
2016-09-09T10:19:54.704Z,200
2016-09-09T10:20:54.688Z,200
2016-09-09T10:21:54.688Z,195
2016-09-09T10:22:54.692Z,195
2016-09-09T10:23:54.703Z,195
2016-09-09T10:24:54.710Z,195
2016-09-09T10:25:54.721Z,195
2016-09-09T10:26:54.710Z,200
2016-09-09T10:27:54.720Z,195
2016-09-09T10:28:54.715Z,195
2016-09-09T10:29:54.725Z,195
2016-09-09T10:30:54.723Z,195
2016-09-09T10:31:54.740Z,195
2016-09-09T10:32:54.747Z,200
2016-09-09T10:33:54.745Z,195
2016-09-09T10:34:54.810Z,195
2016-09-09T10:35:54.753Z,200
2016-09-09T10:36:54.756Z,195
2016-09-09T10:37:55.073Z,200
2016-09-09T10:38:54.790Z,200
2016-09-09T10:39:54.806Z,200
2016-09-09T10:40:54.784Z,195
2016-09-09T10:41:54.792Z,195
2016-09-09T10:42:54.788Z,195
2016-09-09T10:43:54.805Z,195
2016-09-09T10:44:54.791Z,195
2016-09-09T10:45:54.811Z,195
2016-09-09T10:46:54.806Z,195
2016-09-09T10:47:54.814Z,195
2016-09-09T10:48:54.817Z,195
2016-09-09T10:49:54.821Z,195
2016-09-09T10:50:54.824Z,195
2016-09-09T10:51:54.852Z,195
2016-09-09T10:52:54.835Z,195
2016-09-09T10:53:54.832Z,195
2016-09-09T10:54:54.856Z,195
2016-09-09T10:55:54.848Z,195
2016-09-09T10:56:54.854Z,195
2016-09-09T10:57:54.868Z,195
2016-09-09T10:58:54.878Z,195
2016-09-09T10:59:54.881Z,195
2016-09-09T11:00:54.890Z,195
2016-09-09T11:01:54.881Z,190
2016-09-09T11:02:54.882Z,190
2016-09-09T11:03:54.883Z,195
2016-09-09T11:04:54.883Z,190
2016-09-09T11:05:54.882Z,190
2016-09-09T11:06:54.896Z,195
2016-09-09T11:07:54.900Z,190
2016-09-09T11:08:54.898Z,190
2016-09-09T11:09:54.927Z,195
2016-09-09T11:10:55.163Z,195
2016-09-09T11:11:55.176Z,190
2016-09-09T11:12:54.935Z,190
2016-09-09T11:13:54.933Z,195
2016-09-09T11:14:54.945Z,190
2016-09-09T11:15:54.944Z,190
2016-09-09T11:16:54.943Z,190
2016-09-09T11:17:54.943Z,190
2016-09-09T11:18:54.958Z,190
2016-09-09T11:19:54.952Z,190
2016-09-09T11:20:54.963Z,190
2016-09-09T11:21:54.969Z,190
2016-09-09T11:22:54.975Z,190
2016-09-09T11:23:55.362Z,190
2016-09-09T11:24:55.223Z,195
2016-09-09T11:25:54.985Z,190
2016-09-09T11:26:54.987Z,190
2016-09-09T11:27:54.998Z,190
2016-09-09T11:28:54.996Z,190
2016-09-09T11:29:55.009Z,190
2016-09-09T11:30:55.010Z,190
2016-09-09T11:31:55.007Z,190
2016-09-09T11:32:55.011Z,190
2016-09-09T11:33:55.015Z,190
2016-09-09T11:34:55.172Z,190
2016-09-09T11:35:55.033Z,190
2016-09-09T11:36:55.037Z,190
2016-09-09T11:37:55.038Z,190
2016-09-09T11:38:55.063Z,190
2016-09-09T11:39:55.046Z,190
2016-09-09T11:40:55.368Z,190
2016-09-09T11:41:55.373Z,190
2016-09-09T11:42:55.069Z,190
2016-09-09T11:43:55.065Z,190
2016-09-09T11:44:55.071Z,190
2016-09-09T11:45:55.344Z,190
2016-09-09T11:46:55.087Z,190
2016-09-09T11:47:55.086Z,190
2016-09-09T11:48:55.344Z,190
2016-09-09T11:49:55.099Z,190
2016-09-09T11:50:55.103Z,190
2016-09-09T11:51:55.105Z,190
2016-09-09T11:52:55.115Z,190
2016-09-09T11:53:55.432Z,190
2016-09-09T11:54:55.129Z,190
2016-09-09T11:55:55.135Z,190
2016-09-09T11:56:55.138Z,190
2016-09-09T11:57:55.144Z,190
2016-09-09T11:58:55.143Z,190
2016-09-09T11:59:55.465Z,190
2016-09-09T12:00:55.157Z,190
2016-09-09T12:01:55.162Z,190
2016-09-09T12:02:55.158Z,190
2016-09-09T12:03:55.412Z,190
2016-09-09T12:04:55.191Z,190
2016-09-09T12:05:55.189Z,190
2016-09-09T12:06:55.192Z,190
2016-09-09T12:07:55.509Z,190
2016-09-09T12:08:55.207Z,190
2016-09-09T12:09:55.507Z,190
2016-09-09T12:10:55.212Z,190
2016-09-09T12:11:55.445Z,190
2016-09-09T12:12:55.212Z,190
2016-09-09T12:13:55.213Z,185
2016-09-09T12:14:55.212Z,190
2016-09-09T12:15:55.229Z,190
2016-09-09T12:16:55.222Z,190
2016-09-09T12:17:55.255Z,190
2016-09-09T12:18:55.232Z,190
2016-09-09T12:19:55.279Z,190
2016-09-09T12:20:55.275Z,190
2016-09-09T12:21:55.275Z,190
2016-09-09T12:22:55.272Z,190
2016-09-09T12:23:55.265Z,190
2016-09-09T12:24:55.271Z,190
2016-09-09T12:25:55.284Z,190
2016-09-09T12:26:55.281Z,185
2016-09-09T12:27:55.283Z,185
2016-09-09T12:28:55.602Z,185
2016-09-09T12:29:55.292Z,185
2016-09-09T12:30:55.707Z,185
2016-09-09T12:31:55.311Z,185
2016-09-09T12:32:55.309Z,180
2016-09-09T12:33:55.331Z,180
2016-09-09T12:34:55.466Z,180
2016-09-09T12:35:55.334Z,180
2016-09-09T12:36:55.334Z,180
2016-09-09T12:37:55.330Z,180
2016-09-09T12:38:55.347Z,175
2016-09-09T12:39:55.347Z,165
2016-09-09T12:40:55.355Z,150
2016-09-09T12:41:55.358Z,150
2016-09-09T12:42:55.357Z,165
2016-09-09T12:43:55.363Z,185
2016-09-09T12:44:55.371Z,185
2016-09-09T12:45:55.382Z,185
2016-09-09T12:46:55.387Z,185
2016-09-09T12:47:55.384Z,185
2016-09-09T12:48:55.394Z,185
2016-09-09T12:49:55.401Z,185
2016-09-09T12:50:55.402Z,190
2016-09-09T12:51:55.412Z,185
2016-09-09T12:52:55.400Z,185
2016-09-09T12:53:55.414Z,185
2016-09-09T12:54:55.415Z,185
2016-09-09T12:55:55.427Z,180
2016-09-09T12:56:55.420Z,180
2016-09-09T12:57:55.432Z,180
2016-09-09T12:58:55.433Z,180
2016-09-09T12:59:55.450Z,180
2016-09-09T13:00:55.456Z,185
2016-09-09T13:01:55.452Z,185
2016-09-09T13:02:55.458Z,185
2016-09-09T13:03:55.785Z,185
2016-09-09T13:04:55.480Z,185
2016-09-09T13:05:55.518Z,190
2016-09-09T13:06:55.493Z,190
2016-09-09T13:07:55.506Z,190
2016-09-09T13:08:55.496Z,190
2016-09-09T13:09:55.493Z,190
2016-09-09T13:10:55.535Z,185
2016-09-09T13:11:55.507Z,190
2016-09-09T13:12:55.508Z,185
2016-09-09T13:13:55.831Z,185
2016-09-09T13:14:55.535Z,180
2016-09-09T13:15:55.558Z,185
2016-09-09T13:16:55.535Z,185
2016-09-09T13:17:55.535Z,180
2016-09-09T13:18:55.538Z,180
2016-09-09T13:19:55.558Z,180
2016-09-09T13:20:55.806Z,175
2016-09-09T13:21:55.563Z,175
2016-09-09T13:22:55.570Z,175
2016-09-09T13:23:55.588Z,175
2016-09-09T13:24:55.575Z,175
2016-09-09T13:25:55.605Z,175
2016-09-09T13:26:55.591Z,175
2016-09-09T13:27:55.592Z,175
2016-09-09T13:28:55.599Z,180
2016-09-09T13:29:55.601Z,175
2016-09-09T13:30:55.614Z,180
2016-09-09T13:31:55.610Z,175
2016-09-09T13:32:55.611Z,175
2016-09-09T13:33:55.629Z,175
2016-09-09T13:34:55.720Z,175
2016-09-09T13:35:55.640Z,175
2016-09-09T13:36:55.634Z,175
2016-09-09T13:37:55.638Z,175
2016-09-09T13:38:55.656Z,175
2016-09-09T13:39:55.650Z,175
2016-09-09T13:40:55.665Z,175
2016-09-09T13:41:55.667Z,175
2016-09-09T13:42:55.682Z,175
2016-09-09T13:43:55.677Z,180
2016-09-09T13:44:55.689Z,175
2016-09-09T13:45:55.702Z,175
2016-09-09T13:46:55.930Z,175
2016-09-09T13:47:55.697Z,170
2016-09-09T13:48:55.716Z,165
2016-09-09T13:49:55.723Z,160
2016-09-09T13:50:55.737Z,155
2016-09-09T13:51:55.729Z,165
2016-09-09T13:52:55.732Z,150
2016-09-09T13:53:56.058Z,145
2016-09-09T13:54:55.737Z,150
2016-09-09T13:55:55.741Z,145
2016-09-09T13:56:55.990Z,175
2016-09-09T13:57:55.746Z,175
2016-09-09T13:58:55.758Z,175
2016-09-09T13:59:56.071Z,175
2016-09-09T14:00:55.791Z,175
2016-09-09T14:01:56.095Z,175
2016-09-09T14:02:55.786Z,175
2016-09-09T14:03:55.787Z,180
2016-09-09T14:04:55.824Z,180
2016-09-09T14:05:55.828Z,180
2016-09-09T14:06:55.813Z,180
2016-09-09T14:07:55.804Z,180
2016-09-09T14:08:56.429Z,180